createdAt,value
2018-08-06T00:00:38.571Z,76.50
2018-08-06T00:03:08.398Z,75.80
2018-08-06T00:05:37.834Z,75.70
2018-08-06T00:08:07.803Z,75.60
2018-08-06T00:10:37.358Z,75.60
2018-08-06T00:13:06.712Z,75.60
2018-08-06T00:15:36.117Z,75.80
2018-08-06T00:18:05.517Z,75.90
2018-08-06T00:20:34.889Z,75.90
2018-08-06T00:23:04.693Z,76.00
2018-08-06T00:25:34.734Z,76.20
2018-08-06T00:28:04.839Z,76.20
2018-08-06T00:30:34.808Z,76.30
2018-08-06T00:33:04.774Z,76.30
2018-08-06T00:35:34.691Z,76.30
2018-08-06T00:40:34.542Z,76.90
2018-08-06T00:43:04.799Z,76.60
2018-08-06T00:45:35.052Z,76.80
2018-08-06T00:48:04.793Z,77.00
2018-08-06T00:50:34.865Z,76.90
2018-08-06T00:53:04.893Z,76.80
2018-08-06T00:55:34.979Z,76.40
2018-08-06T00:58:05.097Z,76.40
2018-08-06T01:00:34.917Z,76.50
2018-08-06T01:03:04.850Z,76.60
2018-08-06T01:05:34.879Z,76.90
2018-08-06T01:08:04.890Z,77.40
2018-08-06T01:10:34.901Z,77.50
2018-08-06T01:13:04.959Z,77.20
2018-08-06T01:15:34.955Z,76.60
2018-08-06T01:18:05.069Z,76.40
2018-08-06T01:20:34.999Z,76.40
2018-08-06T01:23:04.926Z,76.50
2018-08-06T01:25:34.898Z,76.50
2018-08-06T01:28:04.962Z,76.30
2018-08-06T01:30:34.994Z,76.20
2018-08-06T01:33:05.297Z,76.30
2018-08-06T01:35:34.994Z,76.40
2018-08-06T01:38:05.002Z,76.20
2018-08-06T01:40:35.068Z,76.10
2018-08-06T01:43:05.010Z,76.20
2018-08-06T01:45:35.028Z,76.60
2018-08-06T01:48:05.440Z,76.60
2018-08-06T01:50:34.967Z,76.50
2018-08-06T01:53:05.131Z,76.60
2018-08-06T01:55:34.961Z,76.80
2018-08-06T01:58:05.142Z,77.10
2018-08-06T02:00:35.057Z,77.10
2018-08-06T02:03:05.259Z,77.50
2018-08-06T02:05:34.977Z,77.30
2018-08-06T02:08:05.108Z,77.40
2018-08-06T02:10:35.237Z,78.00
2018-08-06T02:13:05.179Z,77.90
2018-08-06T02:15:35.350Z,77.90
2018-08-06T02:18:05.255Z,78.00
2018-08-06T02:20:35.081Z,78.00
2018-08-06T02:23:05.106Z,78.10
2018-08-06T02:25:35.119Z,78.10
2018-08-06T02:28:05.393Z,78.10
2018-08-06T02:30:35.210Z,77.80
2018-08-06T02:33:05.511Z,77.90
2018-08-06T02:35:35.272Z,77.90
2018-08-06T02:38:05.194Z,79.00
2018-08-06T02:40:35.141Z,77.90
2018-08-06T02:43:05.241Z,78.10
2018-08-06T02:45:35.187Z,78.10
2018-08-06T02:48:05.877Z,78.30
2018-08-06T02:50:35.299Z,78.40
2018-08-06T02:53:05.173Z,77.90
2018-08-06T02:55:35.200Z,77.90
2018-08-06T02:58:05.497Z,78.00
2018-08-06T03:00:35.248Z,78.20
2018-08-06T03:03:05.240Z,78.20
2018-08-06T03:05:35.468Z,78.20
2018-08-06T03:08:05.398Z,78.10
2018-08-06T03:10:35.374Z,78.10
2018-08-06T03:13:05.254Z,78.10
2018-08-06T03:15:35.243Z,78.30
2018-08-06T03:18:05.322Z,78.30
2018-08-06T03:20:35.271Z,78.50
2018-08-06T03:23:05.313Z,78.60
2018-08-06T03:25:35.390Z,78.50
2018-08-06T03:28:05.238Z,78.60
2018-08-06T03:30:35.260Z,78.50
2018-08-06T03:33:05.616Z,78.60
2018-08-06T03:35:35.273Z,78.80
2018-08-06T03:38:05.487Z,78.50
2018-08-06T03:40:35.462Z,78.80
2018-08-06T03:43:05.301Z,78.90
2018-08-06T03:45:35.273Z,79.10
2018-08-06T03:48:05.549Z,79.10
2018-08-06T03:50:35.372Z,79.10
2018-08-06T03:53:05.406Z,79.10
2018-08-06T03:55:35.394Z,79.00
2018-08-06T03:58:05.494Z,78.80
2018-08-06T04:00:35.362Z,78.60
2018-08-06T04:03:05.304Z,78.50
2018-08-06T04:05:35.366Z,78.40
2018-08-06T04:08:05.390Z,78.20
2018-08-06T04:10:35.423Z,77.90
2018-08-06T04:13:05.374Z,77.90
2018-08-06T04:15:35.376Z,77.50
2018-08-06T04:18:05.718Z,77.30
2018-08-06T04:20:35.390Z,77.50
2018-08-06T04:23:05.458Z,77.50
2018-08-06T04:25:35.410Z,77.30
2018-08-06T04:28:05.725Z,77.50
2018-08-06T04:30:35.341Z,77.70
2018-08-06T04:33:05.751Z,77.90
2018-08-06T04:35:35.460Z,78.10
2018-08-06T04:38:05.593Z,78.30
2018-08-06T04:40:35.394Z,78.80
2018-08-06T04:43:05.555Z,79.00
2018-08-06T04:45:35.389Z,80.10
2018-08-06T04:48:05.431Z,79.20
2018-08-06T04:50:35.497Z,79.20
2018-08-06T04:53:05.498Z,79.30
2018-08-06T04:55:35.421Z,79.40
2018-08-06T04:58:05.725Z,79.40
2018-08-06T05:00:35.453Z,79.60
2018-08-06T05:03:05.571Z,79.70
2018-08-06T05:05:35.454Z,79.50
2018-08-06T05:08:05.413Z,79.20
2018-08-06T05:10:35.578Z,79.30
2018-08-06T05:13:05.538Z,79.00
2018-08-06T05:15:35.565Z,78.60
2018-08-06T05:18:05.583Z,78.60
2018-08-06T05:20:35.507Z,77.90
2018-08-06T05:23:05.478Z,78.10
2018-08-06T05:25:35.582Z,77.40
2018-08-06T05:28:05.806Z,77.60
2018-08-06T05:30:35.565Z,76.30
2018-08-06T05:33:05.660Z,75.80
2018-08-06T05:35:35.520Z,76.60
2018-08-06T05:38:05.610Z,76.80
2018-08-06T05:40:35.528Z,75.70
2018-08-06T05:43:05.845Z,75.00
2018-08-06T05:45:35.622Z,73.90
2018-08-06T05:48:05.664Z,74.50
2018-08-06T05:50:35.579Z,73.30
2018-08-06T05:53:11.869Z,72.40
2018-08-06T05:55:41.356Z,72.80
2018-08-06T05:58:10.801Z,73.00
2018-08-06T06:00:40.166Z,73.00
2018-08-06T06:03:09.600Z,72.30
2018-08-06T06:05:38.980Z,72.20
2018-08-06T06:08:08.378Z,72.00
2018-08-06T06:10:37.797Z,72.10
2018-08-06T06:13:07.212Z,71.10
2018-08-06T06:15:36.542Z,70.70
2018-08-06T06:18:05.866Z,70.00
2018-08-06T06:20:35.719Z,69.50
2018-08-06T06:23:06.054Z,68.80
2018-08-06T06:25:35.661Z,68.60
2018-08-06T06:28:05.690Z,68.50
2018-08-06T06:30:35.732Z,68.70
2018-08-06T06:33:05.669Z,67.80
2018-08-06T06:35:35.725Z,66.90
2018-08-06T06:38:05.822Z,66.60
2018-08-06T06:40:35.696Z,66.80
2018-08-06T06:43:05.690Z,66.20
2018-08-06T06:45:35.759Z,65.90
2018-08-06T06:48:05.950Z,66.50
2018-08-06T06:50:35.726Z,65.50
2018-08-06T06:53:05.980Z,65.70
2018-08-06T06:55:35.696Z,64.00
2018-08-06T06:58:06.087Z,63.40
2018-08-06T07:00:35.933Z,63.20
2018-08-06T07:03:06.798Z,62.40
2018-08-06T07:05:36.116Z,61.50
2018-08-06T07:08:05.822Z,62.00
2018-08-06T07:10:35.704Z,60.70
2018-08-06T07:13:05.852Z,59.60
2018-08-06T07:15:35.856Z,59.30
2018-08-06T07:18:08.876Z,59.10
2018-08-06T07:20:38.222Z,58.60
2018-08-06T07:23:07.551Z,58.20
2018-08-06T07:25:36.909Z,58.70
2018-08-06T07:28:06.224Z,58.20
2018-08-06T07:30:35.783Z,59.20
2018-08-06T07:33:05.782Z,58.60
2018-08-06T07:35:35.814Z,58.20
2018-08-06T07:38:05.889Z,58.10
2018-08-06T07:40:35.901Z,57.40
2018-08-06T07:43:05.877Z,57.90
2018-08-06T07:45:35.897Z,58.20
2018-08-06T07:48:06.056Z,56.70
2018-08-06T07:50:35.882Z,56.00
2018-08-06T07:53:06.292Z,55.00
2018-08-06T07:55:35.878Z,54.60
2018-08-06T07:58:06.327Z,54.10
2018-08-06T08:00:35.859Z,53.10
2018-08-06T08:03:05.877Z,52.40
2018-08-06T08:05:35.922Z,52.10
2018-08-06T08:08:05.980Z,51.20
2018-08-06T08:10:35.967Z,51.40
2018-08-06T08:13:06.084Z,49.40
2018-08-06T08:15:36.119Z,49.20
2018-08-06T08:18:06.214Z,49.50
2018-08-06T08:20:35.958Z,49.40
2018-08-06T08:23:06.070Z,49.70
2018-08-06T08:25:36.148Z,48.50
2018-08-06T08:28:06.334Z,48.60
2018-08-06T08:30:36.090Z,48.40
2018-08-06T08:33:06.496Z,48.00
2018-08-06T08:35:35.971Z,47.60
2018-08-06T08:40:35.803Z,46.60
2018-08-06T08:43:06.096Z,45.80
2018-08-06T08:45:36.110Z,46.00
2018-08-06T08:48:06.398Z,45.90
2018-08-06T08:50:36.084Z,46.00
2018-08-06T08:53:06.151Z,45.80
2018-08-06T08:55:36.065Z,43.80
2018-08-06T08:58:06.068Z,44.60
2018-08-06T09:00:36.250Z,46.20
2018-08-06T09:03:06.022Z,44.40
2018-08-06T09:05:36.111Z,45.40
2018-08-06T09:08:06.702Z,44.60
2018-08-06T09:10:36.715Z,44.10
2018-08-06T09:15:36.550Z,43.20
2018-08-06T09:18:06.729Z,42.00
2018-08-06T09:20:41.667Z,43.40
2018-08-06T09:23:11.187Z,42.70
2018-08-06T09:25:40.609Z,42.80
2018-08-06T09:28:09.951Z,42.40
2018-08-06T09:30:39.323Z,41.20
2018-08-06T09:33:08.738Z,39.30
2018-08-06T09:35:38.073Z,40.70
2018-08-06T09:38:07.542Z,40.50
2018-08-06T09:40:37.074Z,40.30
2018-08-06T09:43:06.989Z,39.20
2018-08-06T09:45:36.748Z,39.30
2018-08-06T09:48:06.851Z,39.60
2018-08-06T09:50:36.780Z,39.70
2018-08-06T09:53:07.037Z,38.10
2018-08-06T09:55:36.803Z,38.50
2018-08-06T09:58:06.794Z,37.90
2018-08-06T10:00:41.337Z,38.00
2018-08-06T10:03:10.673Z,37.60
2018-08-06T10:05:40.143Z,37.50
2018-08-06T10:10:38.518Z,36.90
2018-08-06T10:13:07.884Z,35.70
2018-08-06T10:15:37.228Z,35.50
2018-08-06T10:18:06.940Z,34.90
2018-08-06T10:23:06.776Z,35.60
2018-08-06T10:25:36.962Z,35.70
2018-08-06T10:28:06.876Z,33.80
2018-08-06T10:30:36.904Z,34.80
2018-08-06T10:33:06.942Z,35.00
2018-08-06T10:38:06.852Z,34.70
2018-08-06T10:40:36.984Z,34.10
2018-08-06T10:43:07.160Z,33.20
2018-08-06T10:45:37.513Z,33.50
2018-08-06T10:48:06.928Z,33.70
2018-08-06T10:50:36.934Z,34.00
2018-08-06T10:53:07.046Z,33.60
2018-08-06T10:55:36.968Z,34.30
2018-08-06T10:58:06.923Z,33.80
2018-08-06T11:00:36.961Z,33.60
2018-08-06T11:03:06.919Z,33.10
2018-08-06T11:05:36.983Z,31.70
2018-08-06T11:08:06.947Z,31.60
2018-08-06T11:13:07.095Z,32.20
2018-08-06T11:15:37.390Z,31.20
2018-08-06T11:18:07.573Z,32.10
2018-08-06T11:20:37.181Z,30.90
2018-08-06T11:23:07.197Z,33.30
2018-08-06T11:25:36.924Z,32.60
2018-08-06T11:28:07.413Z,30.90
2018-08-06T11:33:06.913Z,31.50
2018-08-06T11:35:37.118Z,31.20
2018-08-06T11:38:07.083Z,30.50
2018-08-06T11:40:37.078Z,30.50
2018-08-06T11:43:07.351Z,31.50
2018-08-06T11:48:06.981Z,31.00
2018-08-06T11:50:37.209Z,30.30
2018-08-06T11:53:07.162Z,30.40
2018-08-06T11:55:37.079Z,29.80
2018-08-06T11:58:07.174Z,29.80
2018-08-06T12:00:37.548Z,29.50
2018-08-06T12:03:07.358Z,30.00
2018-08-06T12:05:37.084Z,31.40
2018-08-06T12:08:07.050Z,30.00
2018-08-06T12:10:37.102Z,30.20
2018-08-06T12:13:07.236Z,31.90
2018-08-06T12:15:37.067Z,32.10
2018-08-06T12:18:07.233Z,31.20
2018-08-06T12:20:37.406Z,31.50
2018-08-06T12:23:07.380Z,31.70
2018-08-06T12:25:37.112Z,32.00
2018-08-06T12:28:07.157Z,32.50
2018-08-06T12:30:37.203Z,31.80
2018-08-06T12:33:07.693Z,31.20
2018-08-06T12:35:37.179Z,31.10
2018-08-06T12:38:07.291Z,31.90
2018-08-06T12:43:07.206Z,31.90
2018-08-06T12:45:37.190Z,31.90
2018-08-06T12:48:07.202Z,32.30
2018-08-06T12:50:37.142Z,32.80
2018-08-06T12:53:07.570Z,31.60
2018-08-06T12:55:37.252Z,30.40
2018-08-06T12:58:07.252Z,30.10
2018-08-06T13:00:37.270Z,31.20
2018-08-06T13:03:07.304Z,31.70
2018-08-06T13:05:37.315Z,31.00
2018-08-06T13:08:07.334Z,31.30
2018-08-06T13:10:37.331Z,31.20
2018-08-06T13:13:07.257Z,31.20
2018-08-06T13:15:37.272Z,30.50
2018-08-06T13:18:07.307Z,31.50
2018-08-06T13:20:37.197Z,30.90
2018-08-06T13:23:07.572Z,31.80
2018-08-06T13:25:37.278Z,31.70
2018-08-06T13:30:37.232Z,31.10
2018-08-06T13:33:07.590Z,31.30
2018-08-06T13:35:37.402Z,31.40
2018-08-06T13:38:07.312Z,32.10
2018-08-06T13:40:37.318Z,31.60
2018-08-06T13:43:07.606Z,32.00
2018-08-06T13:48:07.194Z,32.10
2018-08-06T13:50:37.434Z,31.30
2018-08-06T13:53:07.416Z,31.30
2018-08-06T13:55:37.430Z,30.60
2018-08-06T13:58:07.410Z,31.40
2018-08-06T14:00:37.446Z,32.20
2018-08-06T14:03:07.422Z,32.50
2018-08-06T14:05:37.400Z,32.70
2018-08-06T14:08:07.516Z,32.40
2018-08-06T14:10:37.416Z,31.70
2018-08-06T14:13:07.364Z,30.20
2018-08-06T14:15:37.911Z,31.90
2018-08-06T14:18:07.878Z,31.70
2018-08-06T14:20:37.396Z,33.60
2018-08-06T14:23:07.507Z,32.20
2018-08-06T14:25:37.448Z,33.00
2018-08-06T14:28:07.755Z,31.70
2018-08-06T14:30:37.972Z,32.80
2018-08-06T14:33:07.549Z,32.60
2018-08-06T14:35:37.459Z,32.30
2018-08-06T14:38:07.486Z,32.70
2018-08-06T14:40:37.444Z,32.30
2018-08-06T14:43:07.458Z,32.20
2018-08-06T14:48:07.351Z,33.40
2018-08-06T14:50:38.074Z,33.10
2018-08-06T14:55:37.386Z,32.60
2018-08-06T14:58:07.509Z,32.10
2018-08-06T15:00:37.544Z,32.70
2018-08-06T15:03:07.567Z,32.40
2018-08-06T15:05:37.707Z,32.10
2018-08-06T15:08:07.561Z,32.30
2018-08-06T15:10:37.598Z,32.00
2018-08-06T15:13:11.010Z,33.00
2018-08-06T15:15:40.406Z,32.70
2018-08-06T15:18:10.103Z,33.40
2018-08-06T15:20:39.753Z,32.50
2018-08-06T15:23:09.143Z,33.20
2018-08-06T15:25:38.543Z,33.50
2018-08-06T15:28:07.926Z,32.70
2018-08-06T15:30:38.186Z,32.70
2018-08-06T15:33:07.650Z,32.60
2018-08-06T15:35:37.466Z,32.90
2018-08-06T15:38:07.789Z,32.50
2018-08-06T15:40:37.742Z,32.20
2018-08-06T15:43:07.678Z,33.60
2018-08-06T15:48:07.547Z,33.00
2018-08-06T15:50:37.691Z,32.30
2018-08-06T15:53:07.674Z,31.70
2018-08-06T15:55:37.759Z,32.70
2018-08-06T15:58:07.745Z,32.80
2018-08-06T16:00:37.863Z,32.40
2018-08-06T16:03:07.642Z,32.10
2018-08-06T16:05:37.668Z,31.90
2018-08-06T16:08:07.924Z,32.20
2018-08-06T16:10:37.622Z,32.30
2018-08-06T16:13:07.713Z,31.60
2018-08-06T16:15:37.833Z,31.90
2018-08-06T16:18:07.727Z,31.60
2018-08-06T16:20:37.661Z,31.00
2018-08-06T16:23:07.836Z,31.40
2018-08-06T16:25:37.741Z,31.20
2018-08-06T16:28:07.795Z,32.20
2018-08-06T16:30:37.917Z,31.30
2018-08-06T16:33:07.817Z,32.10
2018-08-06T16:35:37.711Z,31.90
2018-08-06T16:38:07.781Z,31.80
2018-08-06T16:40:37.825Z,30.90
2018-08-06T16:43:08.011Z,31.60
2018-08-06T16:45:37.876Z,31.40
2018-08-06T16:48:07.917Z,32.40
2018-08-06T16:53:07.635Z,32.60
2018-08-06T16:55:40.288Z,33.00
2018-08-06T16:58:09.638Z,33.90
2018-08-06T17:00:38.998Z,34.20
2018-08-06T17:03:08.456Z,34.00
2018-08-06T17:05:37.869Z,34.30
2018-08-06T17:08:07.979Z,34.90
2018-08-06T17:13:07.776Z,34.50
2018-08-06T17:15:37.933Z,33.60
2018-08-06T17:18:07.874Z,33.60
2018-08-06T17:20:37.943Z,34.00
2018-08-06T17:23:07.874Z,34.00
2018-08-06T17:25:37.974Z,32.50
2018-08-06T17:28:07.994Z,33.60
2018-08-06T17:30:37.998Z,34.00
2018-08-06T17:33:07.921Z,33.10
2018-08-06T17:35:38.111Z,33.60
2018-08-06T17:38:07.886Z,34.80
2018-08-06T17:40:37.845Z,36.00
2018-08-06T17:43:07.897Z,37.00
2018-08-06T17:45:38.104Z,37.00
2018-08-06T17:48:07.871Z,37.40
2018-08-06T17:50:37.887Z,37.80
2018-08-06T17:53:08.017Z,38.20
2018-08-06T17:55:37.922Z,38.40
2018-08-06T17:58:07.983Z,39.40
2018-08-06T18:00:38.055Z,40.20
2018-08-06T18:03:08.235Z,41.10
2018-08-06T18:08:07.798Z,42.00
2018-08-06T18:10:38.010Z,41.70
2018-08-06T18:13:08.084Z,41.70
2018-08-06T18:15:38.119Z,42.40
2018-08-06T18:18:08.162Z,42.20
2018-08-06T18:23:07.890Z,42.20
2018-08-06T18:28:07.828Z,42.70
2018-08-06T18:33:08.088Z,42.90
2018-08-06T18:35:38.114Z,43.30
2018-08-06T18:38:08.595Z,43.20
2018-08-06T18:40:38.214Z,43.20
2018-08-06T18:45:37.878Z,43.70
2018-08-06T18:48:08.253Z,43.30
2018-08-06T18:53:08.090Z,43.80
2018-08-06T18:55:38.113Z,43.60
2018-08-06T18:58:08.165Z,43.50
2018-08-06T19:00:38.130Z,44.40
2018-08-06T19:03:08.242Z,43.90
2018-08-06T19:05:38.082Z,43.80
2018-08-06T19:08:08.259Z,44.00
2018-08-06T19:10:38.176Z,44.20
2018-08-06T19:13:13.571Z,44.20
2018-08-06T19:15:42.958Z,44.20
2018-08-06T19:18:17.430Z,44.50
2018-08-06T19:20:46.839Z,44.50
2018-08-06T19:23:16.199Z,44.50
2018-08-06T19:25:45.585Z,44.90
2018-08-06T19:28:15.007Z,45.10
2018-08-06T19:30:49.924Z,45.70
2018-08-06T19:33:19.324Z,46.20
2018-08-06T19:35:48.700Z,46.90
2018-08-06T19:38:18.081Z,48.80
2018-08-06T19:40:47.458Z,48.70
2018-08-06T19:43:22.136Z,48.90
2018-08-06T19:45:51.623Z,49.30
2018-08-06T19:48:20.961Z,49.60
2018-08-06T19:50:50.360Z,49.30
2018-08-06T19:53:19.726Z,49.60
2018-08-06T19:55:54.219Z,49.40
2018-08-06T19:58:23.619Z,49.50
2018-08-06T20:00:53.235Z,49.60
2018-08-06T20:03:22.935Z,50.00
2018-08-06T20:05:52.316Z,50.20
2018-08-06T20:08:21.703Z,50.30
2018-08-06T20:10:51.084Z,50.40
2018-08-06T20:13:20.551Z,51.10
2018-08-06T20:15:50.013Z,51.50
2018-08-06T20:18:19.391Z,51.80
2018-08-06T20:20:48.713Z,52.10
2018-08-06T20:23:18.117Z,52.10
2018-08-06T20:25:47.483Z,52.40
2018-08-06T20:28:16.919Z,52.20
2018-08-06T20:30:46.346Z,52.20
2018-08-06T20:33:15.861Z,52.60
2018-08-06T20:35:45.259Z,53.10
2018-08-06T20:38:14.635Z,53.30
2018-08-06T20:40:44.141Z,53.70
2018-08-06T20:43:13.502Z,53.40
2018-08-06T20:45:42.871Z,53.00
2018-08-06T20:48:12.298Z,53.20
2018-08-06T20:50:41.898Z,53.60
2018-08-06T20:53:11.231Z,53.80
2018-08-06T20:55:40.634Z,54.30
2018-08-06T20:58:10.073Z,54.40
2018-08-06T21:00:39.450Z,54.50
2018-08-06T21:03:08.945Z,54.40
2018-08-06T21:05:38.410Z,54.50
2018-08-06T21:08:08.456Z,54.60
2018-08-06T21:10:38.567Z,54.90
2018-08-06T21:13:08.456Z,55.20
2018-08-06T21:15:38.407Z,55.40
2018-08-06T21:18:08.652Z,55.60
2018-08-06T21:20:38.404Z,55.70
2018-08-06T21:23:08.494Z,55.90
2018-08-06T21:25:38.433Z,56.00
2018-08-06T21:30:38.300Z,56.10
2018-08-06T21:33:08.522Z,56.40
2018-08-06T21:35:38.540Z,56.40
2018-08-06T21:38:08.567Z,56.50
2018-08-06T21:40:38.557Z,56.70
2018-08-06T21:45:38.308Z,56.80
2018-08-06T21:48:08.501Z,56.80
2018-08-06T21:50:38.510Z,57.10
2018-08-06T21:53:09.039Z,57.20
2018-08-06T21:55:38.454Z,57.30
2018-08-06T21:58:08.508Z,57.40
2018-08-06T22:00:40.791Z,57.20
2018-08-06T22:03:15.075Z,57.40
2018-08-06T22:05:44.980Z,57.40
2018-08-06T22:08:14.446Z,57.50
2018-08-06T22:10:43.789Z,58.00
2018-08-06T22:13:13.228Z,57.40
2018-08-06T22:15:42.675Z,57.50
2018-08-06T22:18:13.107Z,57.70
2018-08-06T22:20:42.667Z,57.60
2018-08-06T22:23:12.252Z,57.40
2018-08-06T22:25:41.653Z,57.90
2018-08-06T22:28:13.153Z,58.10
2018-08-06T22:30:42.677Z,58.20
2018-08-06T22:33:12.106Z,58.30
2018-08-06T22:35:41.460Z,58.60
2018-08-06T22:38:10.912Z,58.50
2018-08-06T22:40:40.764Z,59.40
2018-08-06T22:43:10.131Z,58.80
2018-08-06T22:45:39.440Z,58.80
2018-08-06T22:48:08.738Z,59.00
2018-08-06T22:50:38.902Z,59.20
2018-08-06T22:53:08.641Z,59.40
2018-08-06T22:56:00.697Z,59.40
2018-08-06T22:58:30.150Z,59.50
2018-08-06T23:00:59.534Z,59.50
2018-08-06T23:03:29.818Z,59.60
2018-08-06T23:05:59.371Z,59.80
2018-08-06T23:08:28.693Z,60.40
2018-08-06T23:10:58.046Z,60.50
2018-08-06T23:13:27.354Z,60.80
2018-08-06T23:15:56.761Z,61.10
2018-08-06T23:18:26.149Z,61.10
2018-08-06T23:20:55.446Z,61.40
2018-08-06T23:23:24.830Z,61.60
2018-08-06T23:28:23.221Z,62.10
2018-08-06T23:30:52.642Z,62.20
2018-08-06T23:33:22.018Z,62.30
2018-08-06T23:35:51.410Z,62.80
2018-08-06T23:38:20.807Z,63.10
2018-08-06T23:40:50.242Z,63.30
2018-08-06T23:43:19.534Z,63.20
2018-08-06T23:45:49.121Z,63.80
2018-08-06T23:48:18.444Z,64.00
2018-08-06T23:50:47.723Z,63.90
2018-08-06T23:53:17.079Z,63.80
2018-08-06T23:55:46.403Z,64.20
2018-08-06T23:58:15.722Z,64.10
